createdAt,value
2017-10-15T00:00:38.648Z,58.61
2017-10-15T00:01:47.654Z,58.42
2017-10-15T00:02:56.965Z,58.42
2017-10-15T00:04:06.305Z,58.61
2017-10-15T00:05:15.926Z,58.51
2017-10-15T00:06:24.583Z,58.51
2017-10-15T00:07:33.564Z,58.51
2017-10-15T00:08:43.204Z,58.51
2017-10-15T00:09:52.508Z,58.51
2017-10-15T00:11:01.495Z,58.51
2017-10-15T00:12:11.126Z,58.51
2017-10-15T00:13:19.792Z,58.51
2017-10-15T00:14:28.466Z,58.42
2017-10-15T00:15:37.445Z,58.51
2017-10-15T00:16:46.436Z,58.51
2017-10-15T00:17:55.090Z,58.51
2017-10-15T00:19:03.786Z,58.51
2017-10-15T00:20:12.449Z,58.51
2017-10-15T00:21:21.439Z,58.51
2017-10-15T00:22:30.427Z,58.51
2017-10-15T00:23:39.733Z,58.51
2017-10-15T00:24:48.386Z,58.51
2017-10-15T00:25:57.362Z,58.51
2017-10-15T00:27:06.370Z,58.51
2017-10-15T00:28:15.345Z,58.51
2017-10-15T00:29:24.659Z,58.61
2017-10-15T00:30:33.634Z,58.51
2017-10-15T00:31:42.613Z,58.51
2017-10-15T00:32:51.264Z,58.51
2017-10-15T00:33:59.923Z,58.51
2017-10-15T00:35:09.248Z,58.61
2017-10-15T00:36:18.244Z,58.61
2017-10-15T00:37:26.911Z,58.7
2017-10-15T00:38:35.632Z,58.51
2017-10-15T00:39:44.630Z,58.51
2017-10-15T00:40:53.267Z,58.51
2017-10-15T00:42:01.923Z,58.51
2017-10-15T00:43:10.574Z,58.39
2017-10-15T00:44:19.238Z,58.51
2017-10-15T00:45:28.537Z,58.61
2017-10-15T00:46:37.512Z,58.51
2017-10-15T00:47:46.515Z,58.51
2017-10-15T00:48:55.812Z,58.42
2017-10-15T00:50:04.803Z,58.51
2017-10-15T00:51:13.438Z,58.51
2017-10-15T00:52:22.761Z,58.51
2017-10-15T00:53:31.794Z,58.51
2017-10-15T00:54:41.132Z,58.51
2017-10-15T00:55:50.449Z,58.51
2017-10-15T00:56:59.761Z,58.61
2017-10-15T00:58:08.743Z,58.51
2017-10-15T00:59:17.713Z,58.51
2017-10-15T01:00:26.396Z,58.61
2017-10-15T01:01:35.055Z,58.51
2017-10-15T01:02:44.385Z,58.51
2017-10-15T01:03:53.046Z,58.51
2017-10-15T01:05:02.023Z,58.61
2017-10-15T01:06:11.328Z,58.51
2017-10-15T01:07:20.304Z,58.51
2017-10-15T01:08:29.615Z,58.51
2017-10-15T01:09:38.288Z,58.51
2017-10-15T01:10:47.592Z,58.42
2017-10-15T01:11:56.564Z,58.42
2017-10-15T01:13:05.874Z,58.48
2017-10-15T01:14:15.197Z,58.61
2017-10-15T01:15:23.859Z,58.51
2017-10-15T01:16:32.885Z,58.42
2017-10-15T01:17:42.216Z,58.61
2017-10-15T01:18:50.877Z,58.51
2017-10-15T01:20:00.188Z,58.61
2017-10-15T01:21:09.161Z,58.51
2017-10-15T01:22:18.474Z,58.51
2017-10-15T01:23:27.493Z,58.51
2017-10-15T01:24:36.478Z,58.51
2017-10-15T01:25:45.139Z,58.68
2017-10-15T01:26:54.113Z,58.48
2017-10-15T01:28:04.088Z,58.48
2017-10-15T01:29:13.084Z,58.51
2017-10-15T01:30:22.068Z,58.48
2017-10-15T01:31:31.723Z,58.48
2017-10-15T01:32:40.720Z,58.48
2017-10-15T01:33:49.705Z,58.61
2017-10-15T01:34:58.373Z,58.51
2017-10-15T01:36:07.032Z,58.51
2017-10-15T01:37:16.001Z,58.58
2017-10-15T01:38:25.999Z,58.48
2017-10-15T01:39:35.080Z,58.48
2017-10-15T01:40:44.711Z,58.51
2017-10-15T01:41:53.731Z,58.58
2017-10-15T01:43:03.058Z,58.51
2017-10-15T01:44:12.392Z,58.58
2017-10-15T01:45:22.466Z,58.48
2017-10-15T01:46:31.131Z,58.58
2017-10-15T01:47:40.451Z,58.58
2017-10-15T01:48:49.445Z,58.48
2017-10-15T01:49:59.076Z,58.39
2017-10-15T01:51:07.813Z,58.42
2017-10-15T01:52:17.161Z,58.48
2017-10-15T01:53:25.822Z,58.58
2017-10-15T01:54:34.810Z,58.48
2017-10-15T01:55:44.802Z,58.48
2017-10-15T01:56:54.121Z,58.48
2017-10-15T01:58:02.784Z,58.58
2017-10-15T01:59:11.785Z,58.48
2017-10-15T02:00:21.112Z,58.48
2017-10-15T02:01:30.441Z,58.58
2017-10-15T02:02:39.415Z,58.58
2017-10-15T02:03:48.069Z,58.39
2017-10-15T02:04:57.390Z,58.48
2017-10-15T02:06:06.372Z,58.39
2017-10-15T02:07:15.676Z,58.48
2017-10-15T02:08:24.670Z,58.39
2017-10-15T02:09:33.978Z,58.48
2017-10-15T02:10:43.272Z,58.48
2017-10-15T02:11:52.324Z,58.48
2017-10-15T02:13:00.988Z,58.48
2017-10-15T02:14:10.288Z,58.48
2017-10-15T02:15:19.013Z,58.48
2017-10-15T02:16:28.017Z,58.48
2017-10-15T02:17:37.383Z,58.48
2017-10-15T02:18:46.033Z,58.48
2017-10-15T02:19:55.677Z,58.39
2017-10-15T02:21:05.319Z,58.68
2017-10-15T02:22:14.298Z,58.58
2017-10-15T02:23:22.952Z,58.39
2017-10-15T02:24:32.267Z,58.48
2017-10-15T02:25:41.706Z,58.68
2017-10-15T02:26:50.679Z,58.48
2017-10-15T02:27:59.976Z,58.48
2017-10-15T02:29:09.282Z,58.39
2017-10-15T02:30:18.598Z,58.48
2017-10-15T02:31:27.239Z,57.81
2017-10-15T02:32:36.257Z,58.48
2017-10-15T02:33:45.574Z,58.58
2017-10-15T02:34:54.238Z,58.58
2017-10-15T02:36:02.897Z,58.68
2017-10-15T02:37:12.250Z,58.68
2017-10-15T02:38:20.904Z,58.58
2017-10-15T02:39:29.939Z,58.58
2017-10-15T02:40:39.228Z,58
2017-10-15T02:41:48.198Z,58.39
2017-10-15T02:42:58.288Z,58
2017-10-15T02:44:07.278Z,57.81
2017-10-15T02:45:15.930Z,58.39
2017-10-15T02:46:24.921Z,58.39
2017-10-15T02:47:34.256Z,57.81
2017-10-15T02:48:43.566Z,58.58
2017-10-15T02:49:52.880Z,57.9
2017-10-15T02:51:01.879Z,58.58
2017-10-15T02:52:11.180Z,57.81
2017-10-15T02:53:20.169Z,58.58
2017-10-15T02:54:29.813Z,58.58
2017-10-15T02:55:39.447Z,58.58
2017-10-15T02:56:48.432Z,57.81
2017-10-15T02:57:57.435Z,58.68
2017-10-15T02:59:07.402Z,58.58
2017-10-15T03:00:16.401Z,58.58
2017-10-15T03:01:25.059Z,58.58
2017-10-15T03:02:34.028Z,58.39
2017-10-15T03:03:43.338Z,58.39
2017-10-15T03:04:52.008Z,58.68
2017-10-15T03:06:01.102Z,58.58
2017-10-15T03:07:10.084Z,58.58
2017-10-15T03:08:18.737Z,58.48
2017-10-15T03:09:28.079Z,57.81
2017-10-15T03:10:37.399Z,58.58
2017-10-15T03:11:46.516Z,57.81
2017-10-15T03:12:56.469Z,58.58
2017-10-15T03:14:05.465Z,58.58
2017-10-15T03:15:14.132Z,58.58
2017-10-15T03:16:23.776Z,58
2017-10-15T03:17:32.767Z,58.48
2017-10-15T03:18:41.752Z,58.58
2017-10-15T03:19:50.762Z,57.81
2017-10-15T03:20:59.414Z,58
2017-10-15T03:22:08.397Z,57.81
2017-10-15T03:23:17.824Z,57.81
2017-10-15T03:24:26.809Z,58
2017-10-15T03:25:36.446Z,58.58
2017-10-15T03:26:45.753Z,58.58
2017-10-15T03:27:54.731Z,58
2017-10-15T03:29:03.739Z,57.9
2017-10-15T03:30:13.712Z,58.29
2017-10-15T03:31:22.750Z,57.9
2017-10-15T03:32:32.061Z,58.58
2017-10-15T03:33:41.040Z,58.1
2017-10-15T03:34:50.021Z,57.9
2017-10-15T03:36:00.003Z,58
2017-10-15T03:37:08.990Z,58
2017-10-15T03:38:17.986Z,57.9
2017-10-15T03:39:26.984Z,58.58
2017-10-15T03:40:35.963Z,58
2017-10-15T03:41:44.958Z,58.1
2017-10-15T03:42:54.286Z,57.81
2017-10-15T03:44:03.265Z,57.9
2017-10-15T03:45:12.008Z,58.48
2017-10-15T03:46:20.984Z,58.1
2017-10-15T03:47:30.283Z,58
2017-10-15T03:48:39.600Z,57.71
2017-10-15T03:49:48.937Z,58
2017-10-15T03:50:58.258Z,58
2017-10-15T03:52:07.564Z,58
2017-10-15T03:53:16.550Z,58.1
2017-10-15T03:54:25.897Z,58
2017-10-15T03:55:34.547Z,58
2017-10-15T03:56:44.185Z,58
2017-10-15T03:57:53.171Z,58.58
2017-10-15T03:59:02.486Z,57.9
2017-10-15T04:00:11.477Z,57.9
2017-10-15T04:01:20.133Z,58.1
2017-10-15T04:02:29.448Z,58
2017-10-15T04:03:38.428Z,58
2017-10-15T04:04:47.421Z,57.81
2017-10-15T04:05:56.743Z,57.9
2017-10-15T04:07:05.734Z,58.1
2017-10-15T04:08:15.046Z,58.1
2017-10-15T04:09:24.361Z,58.29
2017-10-15T04:10:33.024Z,58.29
2017-10-15T04:11:42.358Z,57.81
2017-10-15T04:12:51.345Z,57.81
2017-10-15T04:14:00.649Z,58.1
2017-10-15T04:15:09.747Z,57.81
2017-10-15T04:16:18.737Z,57.9
2017-10-15T04:17:27.747Z,58
2017-10-15T04:18:36.405Z,57.9
2017-10-15T04:19:45.416Z,58
2017-10-15T04:20:55.053Z,58
2017-10-15T04:22:04.043Z,58.19
2017-10-15T04:23:12.711Z,58
2017-10-15T04:24:21.371Z,58
2017-10-15T04:25:30.679Z,58
2017-10-15T04:26:40.415Z,57.81
2017-10-15T04:27:49.389Z,58
2017-10-15T04:28:58.699Z,57.81
2017-10-15T04:30:07.686Z,58
2017-10-15T04:31:16.995Z,58
2017-10-15T04:32:26.306Z,57.9
2017-10-15T04:33:35.602Z,58
2017-10-15T04:34:45.580Z,57.81
2017-10-15T04:35:54.312Z,58
2017-10-15T04:37:02.968Z,58
2017-10-15T04:38:11.972Z,57.9
2017-10-15T04:39:20.634Z,58
2017-10-15T04:40:29.292Z,58
2017-10-15T04:41:38.592Z,58
2017-10-15T04:42:47.592Z,57.81
2017-10-15T04:43:56.908Z,58
2017-10-15T04:45:06.552Z,58
2017-10-15T04:46:15.894Z,57.9
2017-10-15T04:47:25.206Z,58
2017-10-15T04:48:34.198Z,57.9
2017-10-15T04:49:42.864Z,58
2017-10-15T04:50:51.844Z,58
2017-10-15T04:52:00.830Z,58
2017-10-15T04:53:09.810Z,57.81
2017-10-15T04:54:18.812Z,57.9
2017-10-15T04:55:27.798Z,57.71
2017-10-15T04:56:36.774Z,57.71
2017-10-15T04:57:45.428Z,57.71
2017-10-15T04:58:54.079Z,57.62
2017-10-15T05:00:03.061Z,57.71
2017-10-15T05:01:12.052Z,57.81
2017-10-15T05:02:21.093Z,57.71
2017-10-15T05:03:30.412Z,57.9
2017-10-15T05:04:39.720Z,57.9
2017-10-15T05:05:48.703Z,57.9
2017-10-15T05:06:58.691Z,57.62
2017-10-15T05:08:08.029Z,57.9
2017-10-15T05:09:17.331Z,57.52
2017-10-15T05:10:26.985Z,57.52
2017-10-15T05:11:36.281Z,57.62
2017-10-15T05:12:44.959Z,57.81
2017-10-15T05:13:54.277Z,57.9
2017-10-15T05:15:03.263Z,57.9
2017-10-15T05:16:12.257Z,57.9
2017-10-15T05:17:21.260Z,57.52
2017-10-15T05:18:30.237Z,57.81
2017-10-15T05:19:38.902Z,57.81
2017-10-15T05:20:48.210Z,57.71
2017-10-15T05:21:57.187Z,57.81
2017-10-15T05:23:06.168Z,57.9
2017-10-15T05:24:14.833Z,57.81
2017-10-15T05:25:24.141Z,57.52
2017-10-15T05:26:33.123Z,57.81
2017-10-15T05:27:42.449Z,57.81
2017-10-15T05:28:51.429Z,57.71
2017-10-15T05:30:01.172Z,58
2017-10-15T05:31:10.496Z,57.62
2017-10-15T05:32:19.482Z,57.62
2017-10-15T05:33:28.143Z,58
2017-10-15T05:34:38.116Z,57.71
2017-10-15T05:35:47.130Z,58
2017-10-15T05:36:56.106Z,57.62
2017-10-15T05:38:05.425Z,57.9
2017-10-15T05:39:14.792Z,57.9
2017-10-15T05:40:24.464Z,58
2017-10-15T05:41:33.446Z,58
2017-10-15T05:42:42.774Z,57.9
2017-10-15T05:43:51.775Z,58
2017-10-15T05:45:00.432Z,57.9
2017-10-15T05:46:09.747Z,57.9
2017-10-15T05:47:18.720Z,57.9
2017-10-15T05:48:28.019Z,57.81
2017-10-15T05:49:36.669Z,57.71
2017-10-15T05:50:45.340Z,57.81
2017-10-15T05:51:54.015Z,57.9
2017-10-15T05:53:03.639Z,57.9
2017-10-15T05:54:12.290Z,57.81
2017-10-15T05:55:21.594Z,57.81
2017-10-15T05:56:30.921Z,57.9
2017-10-15T05:57:39.591Z,57.81
2017-10-15T05:58:48.570Z,58.1
2017-10-15T05:59:57.564Z,57.71
2017-10-15T06:01:06.556Z,58.1
2017-10-15T06:02:15.535Z,58
2017-10-15T06:03:24.532Z,58
2017-10-15T06:04:33.942Z,58
2017-10-15T06:05:42.621Z,58
2017-10-15T06:06:52.599Z,57.9
2017-10-15T06:08:01.924Z,58
2017-10-15T06:09:10.892Z,57.9
2017-10-15T06:10:19.893Z,57.9
2017-10-15T06:11:28.886Z,57.9
2017-10-15T06:12:38.210Z,58.1
2017-10-15T06:13:47.524Z,58.1
2017-10-15T06:14:56.833Z,57.9
2017-10-15T06:16:06.488Z,58
2017-10-15T06:17:15.150Z,57.71
2017-10-15T06:18:24.238Z,57.71
2017-10-15T06:19:32.903Z,57.71
2017-10-15T06:20:42.907Z,57.62
2017-10-15T06:21:51.566Z,57.62
2017-10-15T06:23:00.934Z,57.62
2017-10-15T06:24:10.238Z,57.9
2017-10-15T06:25:19.216Z,57.71
2017-10-15T06:26:28.191Z,57.81
2017-10-15T06:27:37.571Z,57.62
2017-10-15T06:28:46.559Z,57.71
2017-10-15T06:29:55.246Z,57.81
2017-10-15T06:31:04.885Z,57.62
2017-10-15T06:32:13.863Z,57.62
2017-10-15T06:33:22.861Z,57.81
2017-10-15T06:34:32.280Z,57.71
2017-10-15T06:35:41.937Z,57.71
2017-10-15T06:36:50.934Z,57.71
2017-10-15T06:38:00.284Z,58.1
2017-10-15T06:39:09.586Z,58.1
2017-10-15T06:40:18.587Z,57.9
2017-10-15T06:41:27.570Z,58
2017-10-15T06:42:36.556Z,57.9
2017-10-15T06:43:45.868Z,57.52
2017-10-15T06:44:54.927Z,57.52
2017-10-15T06:46:04.462Z,57.62
2017-10-15T06:47:13.548Z,57.52
2017-10-15T06:48:23.255Z,57.32
2017-10-15T06:49:32.727Z,57.62
2017-10-15T06:50:41.767Z,57.71
2017-10-15T06:51:50.839Z,57.62
2017-10-15T06:52:59.836Z,57.42
2017-10-15T06:54:08.990Z,57.62
2017-10-15T06:55:18.441Z,57.62
2017-10-15T06:56:28.090Z,57.62
2017-10-15T06:57:36.749Z,57.52
2017-10-15T06:58:46.746Z,57.52
2017-10-15T06:59:57.573Z,57.52
2017-10-15T07:01:07.781Z,57.42
2017-10-15T07:02:17.584Z,57.42
2017-10-15T07:03:27.153Z,57.42
2017-10-15T07:04:36.265Z,57.04
2017-10-15T07:05:45.257Z,57.32
2017-10-15T07:06:54.247Z,57.23
2017-10-15T07:08:03.347Z,57.14
2017-10-15T07:09:12.368Z,57.23
2017-10-15T07:10:21.677Z,57.23
2017-10-15T07:11:30.984Z,57.42
2017-10-15T07:12:39.845Z,57.23
2017-10-15T07:13:48.850Z,57.14
2017-10-15T07:14:57.855Z,57.14
2017-10-15T07:16:06.967Z,57.23
2017-10-15T07:17:17.106Z,57.23
2017-10-15T07:18:26.436Z,57.32
2017-10-15T07:19:35.095Z,57.52
2017-10-15T07:20:44.399Z,57.04
2017-10-15T07:21:53.067Z,57.42
2017-10-15T07:23:02.059Z,57.23
2017-10-15T07:24:10.736Z,57.23
2017-10-15T07:25:20.383Z,57.23
2017-10-15T07:26:29.378Z,57.32
2017-10-15T07:27:38.709Z,57.14
2017-10-15T07:28:47.367Z,57.14
2017-10-15T07:29:57.024Z,57.14
2017-10-15T07:31:06.698Z,57.04
2017-10-15T07:32:16.033Z,57.04
2017-10-15T07:33:25.341Z,56.74
2017-10-15T07:34:34.012Z,56.94
2017-10-15T07:35:42.998Z,56.84
2017-10-15T07:36:52.647Z,56.94
2017-10-15T07:38:01.962Z,56.94
2017-10-15T07:39:11.274Z,57.04
2017-10-15T07:40:19.942Z,57.14
2017-10-15T07:41:29.253Z,56.94
2017-10-15T07:42:38.685Z,56.94
2017-10-15T07:43:47.695Z,56.94
2017-10-15T07:44:57.078Z,56.94
2017-10-15T07:46:06.103Z,56.84
2017-10-15T07:47:14.852Z,56.84
2017-10-15T07:48:24.520Z,57.04
2017-10-15T07:49:33.502Z,57.16
2017-10-15T07:50:42.482Z,57.23
2017-10-15T07:51:51.464Z,57.14
2017-10-15T07:53:00.454Z,57.23
2017-10-15T07:54:09.430Z,57.04
2017-10-15T07:55:18.764Z,57.04
2017-10-15T07:56:28.184Z,57.14
2017-10-15T07:57:37.499Z,57.04
2017-10-15T07:58:46.826Z,57.23
2017-10-15T07:59:55.818Z,57.23
2017-10-15T08:01:04.875Z,57.14
2017-10-15T08:02:13.872Z,57.04
2017-10-15T08:03:22.884Z,56.84
2017-10-15T08:04:32.258Z,57.14
2017-10-15T08:05:40.914Z,56.77
2017-10-15T08:06:50.585Z,56.65
2017-10-15T08:07:59.922Z,56.58
2017-10-15T08:09:08.911Z,56.39
2017-10-15T08:10:17.909Z,56.36
2017-10-15T08:11:26.898Z,56.77
2017-10-15T08:12:36.243Z,56.58
2017-10-15T08:13:45.248Z,56.87
2017-10-15T08:14:54.551Z,56.58
2017-10-15T08:16:03.892Z,56.48
2017-10-15T08:17:13.217Z,56.48
2017-10-15T08:18:22.589Z,56.58
2017-10-15T08:19:31.564Z,56.58
2017-10-15T08:20:40.938Z,56.2
2017-10-15T08:21:50.281Z,55.9
2017-10-15T08:22:59.277Z,56.29
2017-10-15T08:24:21.333Z,56.39
2017-10-15T08:25:30.331Z,56.2
2017-10-15T08:26:39.636Z,56
2017-10-15T08:27:48.635Z,55.9
2017-10-15T08:28:57.964Z,56.03
2017-10-15T08:30:07.285Z,56.13
2017-10-15T08:31:16.614Z,56.03
2017-10-15T08:32:25.638Z,56.32
2017-10-15T08:33:34.645Z,56.13
2017-10-15T08:34:43.637Z,56.03
2017-10-15T08:35:52.643Z,55.93
2017-10-15T08:37:01.943Z,56.03
2017-10-15T08:38:11.260Z,55.83
2017-10-15T08:39:20.634Z,55.45
2017-10-15T08:40:29.288Z,55.65
2017-10-15T08:41:38.598Z,55.65
2017-10-15T08:42:47.411Z,55.74
2017-10-15T08:43:57.063Z,55.74
2017-10-15T08:45:06.706Z,55.83
2017-10-15T08:46:15.366Z,55.83
2017-10-15T08:47:24.362Z,55.83
2017-10-15T08:48:33.681Z,55.83
2017-10-15T08:49:43.015Z,55.65
2017-10-15T08:50:52.710Z,55.93
2017-10-15T08:52:01.701Z,55.93
2017-10-15T08:53:10.718Z,55.93
2017-10-15T08:54:19.392Z,55.83
2017-10-15T08:55:29.018Z,55.93
2017-10-15T08:56:38.654Z,55.93
2017-10-15T08:57:48.064Z,55.74
2017-10-15T08:58:57.720Z,55.74
2017-10-15T09:00:06.748Z,55.83
2017-10-15T09:01:16.389Z,55.93
2017-10-15T09:02:25.054Z,56.22
2017-10-15T09:03:33.733Z,56.22
2017-10-15T09:04:42.407Z,56.61
2017-10-15T09:05:51.407Z,56.68
2017-10-15T09:07:00.388Z,56.58
2017-10-15T09:08:09.545Z,57.26
2017-10-15T09:09:18.398Z,57.16
2017-10-15T09:10:27.474Z,57.52
2017-10-15T09:11:36.912Z,57.62
2017-10-15T09:12:46.581Z,57.9
2017-10-15T09:13:55.565Z,57.71
2017-10-15T09:15:04.933Z,58.39
2017-10-15T09:16:13.919Z,58.39
2017-10-15T09:17:23.236Z,58.39
2017-10-15T09:18:32.902Z,58.36
2017-10-15T09:19:42.247Z,58.26
2017-10-15T09:20:51.576Z,58.75
2017-10-15T09:22:00.927Z,58.45
2017-10-15T09:23:10.723Z,58.84
2017-10-15T09:24:20.055Z,58.65
2017-10-15T09:25:29.075Z,59.42
2017-10-15T09:26:38.426Z,59.58
2017-10-15T09:27:47.124Z,59.2
2017-10-15T09:28:55.778Z,59.3
2017-10-15T09:30:04.442Z,59.78
2017-10-15T09:31:13.172Z,59.78
2017-10-15T09:32:22.510Z,59.78
2017-10-15T09:33:31.278Z,59.87
2017-10-15T09:34:40.333Z,59.97
2017-10-15T09:35:48.998Z,59.87
2017-10-15T09:36:57.673Z,59.78
2017-10-15T09:38:06.661Z,59.97
2017-10-15T09:39:15.637Z,59.75
2017-10-15T09:40:24.959Z,59.68
2017-10-15T09:41:33.650Z,59.55
2017-10-15T09:42:42.669Z,59.65
2017-10-15T09:43:51.319Z,60.03
2017-10-15T09:45:00.015Z,59.75
2017-10-15T09:46:10.005Z,59.84
2017-10-15T09:47:18.998Z,59.65
2017-10-15T09:48:28.095Z,59.55
2017-10-15T09:49:37.415Z,59.84
2017-10-15T09:50:46.417Z,59.94
2017-10-15T09:51:55.742Z,59.84
2017-10-15T09:53:04.744Z,59.36
2017-10-15T09:54:13.429Z,59.55
2017-10-15T09:55:22.405Z,59.27
2017-10-15T09:56:31.724Z,59.17
2017-10-15T09:57:41.058Z,59.07
2017-10-15T09:58:50.130Z,59.07
2017-10-15T09:59:58.806Z,59.27
2017-10-15T10:01:07.799Z,59.17
2017-10-15T10:02:16.456Z,59.36
2017-10-15T10:03:25.442Z,59.39
2017-10-15T10:04:34.420Z,59
2017-10-15T10:05:43.128Z,58.72
2017-10-15T10:06:51.835Z,58.52
2017-10-15T10:08:00.841Z,58.62
2017-10-15T10:09:10.186Z,58.33
2017-10-15T10:10:18.867Z,58.04
2017-10-15T10:11:28.531Z,58.55
2017-10-15T10:12:37.193Z,57.97
2017-10-15T10:13:45.904Z,57.87
2017-10-15T10:14:55.550Z,57.59
2017-10-15T10:16:04.538Z,57.39
2017-10-15T10:17:13.308Z,57.2
2017-10-15T10:18:22.308Z,57.04
2017-10-15T10:19:31.301Z,56.94
2017-10-15T10:20:40.286Z,57.14
2017-10-15T10:21:48.975Z,57.23
2017-10-15T10:22:59.085Z,56.94
2017-10-15T10:24:08.737Z,56.56
2017-10-15T10:25:17.729Z,56.65
2017-10-15T10:26:26.714Z,56.56
2017-10-15T10:27:35.710Z,56.56
2017-10-15T10:28:45.097Z,56.46
2017-10-15T10:29:55.089Z,56.46
2017-10-15T10:31:03.750Z,56.36
2017-10-15T10:32:13.791Z,56.26
2017-10-15T10:33:22.458Z,56.56
2017-10-15T10:34:31.869Z,56.68
2017-10-15T10:35:41.032Z,56.46
2017-10-15T10:36:49.787Z,56.07
2017-10-15T10:37:59.103Z,56.2
2017-10-15T10:39:07.779Z,56.1
2017-10-15T10:40:16.771Z,56.1
2017-10-15T10:41:25.444Z,56.1
2017-10-15T10:42:34.098Z,56.29
2017-10-15T10:43:42.784Z,56.1
2017-10-15T10:44:51.438Z,56
2017-10-15T10:46:00.129Z,56.1
2017-10-15T10:47:08.779Z,55.9
2017-10-15T10:48:17.792Z,56.1
2017-10-15T10:49:27.482Z,56.1
2017-10-15T10:50:36.501Z,56.2
2017-10-15T10:51:46.177Z,56.39
2017-10-15T10:52:54.866Z,56
2017-10-15T10:54:03.546Z,56.1
2017-10-15T10:55:12.881Z,56.1
2017-10-15T10:56:21.529Z,55.9
2017-10-15T10:57:30.534Z,56.29
2017-10-15T10:58:39.528Z,56.29
2017-10-15T10:59:48.840Z,56.48
2017-10-15T11:00:58.530Z,56.29
2017-10-15T11:02:08.174Z,55.9
2017-10-15T11:03:17.533Z,56
2017-10-15T11:04:26.509Z,56.29
2017-10-15T11:05:35.487Z,56.29
2017-10-15T11:06:45.129Z,56.39
2017-10-15T11:07:54.133Z,56.29
2017-10-15T11:09:03.767Z,55.81
2017-10-15T11:10:12.433Z,56.13
2017-10-15T11:11:21.413Z,56
2017-10-15T11:12:30.730Z,56
2017-10-15T11:13:39.743Z,56.13
2017-10-15T11:14:49.066Z,56.03
2017-10-15T11:15:57.793Z,56.2
2017-10-15T11:17:06.452Z,56.2
2017-10-15T11:18:15.107Z,56
2017-10-15T11:19:24.084Z,56.03
2017-10-15T11:20:33.177Z,56.22
2017-10-15T11:21:42.510Z,56.03
2017-10-15T11:22:51.181Z,56.03
2017-10-15T11:24:00.160Z,56
2017-10-15T11:25:09.796Z,56.03
2017-10-15T11:26:18.797Z,56.2
2017-10-15T11:27:27.446Z,56
2017-10-15T11:28:36.750Z,56.13
2017-10-15T11:29:45.408Z,56.22
2017-10-15T11:30:54.423Z,56.03
2017-10-15T11:32:03.411Z,56.03
2017-10-15T11:33:12.080Z,56.13
2017-10-15T11:34:20.732Z,56.03
2017-10-15T11:35:29.710Z,56.2
2017-10-15T11:36:38.699Z,56.13
2017-10-15T11:37:47.356Z,56.22
2017-10-15T11:38:56.325Z,56.13
2017-10-15T11:40:05.318Z,56
2017-10-15T11:41:14.733Z,56.13
2017-10-15T11:42:23.740Z,56.13
2017-10-15T11:43:32.520Z,56.13
2017-10-15T11:44:41.175Z,56.03
2017-10-15T11:45:49.841Z,56.22
2017-10-15T11:46:59.469Z,56.03
2017-10-15T11:48:08.442Z,56.03
2017-10-15T11:49:17.101Z,56.22
2017-10-15T11:50:25.770Z,55.93
2017-10-15T11:51:35.415Z,55.93
2017-10-15T11:52:44.440Z,56.22
2017-10-15T11:53:53.111Z,56.22
2017-10-15T11:55:02.427Z,56.03
2017-10-15T11:56:11.470Z,56.13
2017-10-15T11:57:20.459Z,56.03
2017-10-15T11:58:29.760Z,56.13
2017-10-15T11:59:39.087Z,56.13
2017-10-15T12:00:48.824Z,56.32
2017-10-15T12:01:57.483Z,56.03
2017-10-15T12:03:06.142Z,56.22
2017-10-15T12:04:15.134Z,56.22
2017-10-15T12:05:24.130Z,56.13
2017-10-15T12:06:33.145Z,56.13
2017-10-15T12:07:42.465Z,56.13
2017-10-15T12:08:51.465Z,56.13
2017-10-15T12:10:00.243Z,56.03
2017-10-15T12:11:09.572Z,56.13
2017-10-15T12:12:18.286Z,56.13
2017-10-15T12:13:27.613Z,56.22
2017-10-15T12:14:37.262Z,56.03
2017-10-15T12:15:46.258Z,56.03
2017-10-15T12:16:54.898Z,56.03
2017-10-15T12:18:03.574Z,56.03
2017-10-15T12:19:12.242Z,56.22
2017-10-15T12:20:21.551Z,56.13
2017-10-15T12:21:30.205Z,56.22
2017-10-15T12:22:38.908Z,56.03
2017-10-15T12:23:48.574Z,56.03
2017-10-15T12:24:57.569Z,56.03
2017-10-15T12:26:06.904Z,56.13
2017-10-15T12:27:16.233Z,56.22
2017-10-15T12:28:25.895Z,56.03
2017-10-15T12:29:34.881Z,56.22
2017-10-15T12:30:44.198Z,55.93
2017-10-15T12:31:53.558Z,56.03
2017-10-15T12:33:02.556Z,56.03
2017-10-15T12:34:11.865Z,56.03
2017-10-15T12:35:21.236Z,56.03
2017-10-15T12:36:29.894Z,56.03
2017-10-15T12:37:38.880Z,55.74
2017-10-15T12:38:47.600Z,56.03
2017-10-15T12:39:56.662Z,55.93
2017-10-15T12:41:06.000Z,56.03
2017-10-15T12:42:15.347Z,56.22
2017-10-15T12:43:24.349Z,56.03
2017-10-15T12:44:33.083Z,56.22
2017-10-15T12:45:42.063Z,55.93
2017-10-15T12:46:51.111Z,56.22
2017-10-15T12:48:00.101Z,56.13
2017-10-15T12:49:09.104Z,56.03
2017-10-15T12:50:18.090Z,56.22
2017-10-15T12:51:27.420Z,56.22
2017-10-15T12:52:36.449Z,56.13
2017-10-15T12:53:45.128Z,56.22
2017-10-15T12:54:53.798Z,56.03
2017-10-15T12:56:02.456Z,55.93
2017-10-15T12:57:11.472Z,56.13
2017-10-15T12:58:20.799Z,56.03
2017-10-15T12:59:29.814Z,56.03
2017-10-15T13:00:38.830Z,56.03
2017-10-15T13:01:47.491Z,56.03
2017-10-15T13:02:56.822Z,56.03
2017-10-15T13:04:05.808Z,56.03
2017-10-15T13:05:14.496Z,55.93
2017-10-15T13:06:23.232Z,56.13
2017-10-15T13:07:31.896Z,56.03
2017-10-15T13:08:40.878Z,56.03
2017-10-15T13:09:50.208Z,56.13
2017-10-15T13:10:59.555Z,56.03
2017-10-15T13:12:08.552Z,56.03
2017-10-15T13:13:17.889Z,56.22
2017-10-15T13:14:27.200Z,56.03
2017-10-15T13:15:35.885Z,56.03
2017-10-15T13:16:45.214Z,56.03
2017-10-15T13:17:54.198Z,56.22
2017-10-15T13:19:02.868Z,56.22
2017-10-15T13:20:11.859Z,56.22
2017-10-15T13:21:21.186Z,56.03
2017-10-15T13:22:30.181Z,56.13
2017-10-15T13:23:39.181Z,56.03
2017-10-15T13:24:47.879Z,56.03
2017-10-15T13:25:57.215Z,56.03
2017-10-15T13:27:06.049Z,56.22
2017-10-15T13:28:14.756Z,56.03
2017-10-15T13:29:24.429Z,56.22
2017-10-15T13:30:33.157Z,56.03
2017-10-15T13:31:42.479Z,56.22
2017-10-15T13:32:51.562Z,56.22
2017-10-15T13:34:00.570Z,56.13
2017-10-15T13:35:09.638Z,56.13
2017-10-15T13:36:18.698Z,56.03
2017-10-15T13:37:28.441Z,56.03
2017-10-15T13:38:38.253Z,56.03
2017-10-15T13:39:47.307Z,56.13
2017-10-15T13:40:56.038Z,56.22
2017-10-15T13:42:05.383Z,56.03
2017-10-15T13:43:14.406Z,56.13
2017-10-15T13:44:24.396Z,56.22
2017-10-15T13:45:33.422Z,56.03
2017-10-15T13:46:42.813Z,56.03
2017-10-15T13:47:51.544Z,56.03
2017-10-15T13:49:00.248Z,56.32
2017-10-15T13:50:09.564Z,56.41
2017-10-15T13:51:18.268Z,56.03
2017-10-15T13:52:27.318Z,56.51
2017-10-15T13:53:36.315Z,55.93
2017-10-15T13:54:46.023Z,56.03
2017-10-15T13:55:55.384Z,56.41
2017-10-15T13:57:04.045Z,56.22
2017-10-15T13:58:13.391Z,56.22
2017-10-15T13:59:22.049Z,56.03
2017-10-15T14:00:32.052Z,56.13
2017-10-15T14:01:41.094Z,56.13
2017-10-15T14:02:50.121Z,56.03
2017-10-15T14:03:59.439Z,56.03
2017-10-15T14:05:08.450Z,56.03
2017-10-15T14:06:17.124Z,56.03
2017-10-15T14:07:26.460Z,56.03
2017-10-15T14:08:35.126Z,56.03
2017-10-15T14:09:44.149Z,56.13
2017-10-15T14:10:53.214Z,56.13
2017-10-15T14:12:02.243Z,56.13
2017-10-15T14:13:10.999Z,56.13
2017-10-15T14:14:21.318Z,56.41
2017-10-15T14:15:30.314Z,56.41
2017-10-15T14:16:38.977Z,56.03
2017-10-15T14:17:47.960Z,56.05
2017-10-15T14:18:56.959Z,56.03
2017-10-15T14:20:05.968Z,56.03
2017-10-15T14:21:14.980Z,56.03
2017-10-15T14:22:23.999Z,56.03
2017-10-15T14:23:33.061Z,56.13
2017-10-15T14:24:42.413Z,56.22
2017-10-15T14:25:51.480Z,56.22
2017-10-15T14:27:00.798Z,56.13
2017-10-15T14:28:09.814Z,56.41
2017-10-15T14:29:18.821Z,56.05
2017-10-15T14:30:27.578Z,56.32
2017-10-15T14:31:36.574Z,56.15
2017-10-15T14:32:45.593Z,56.22
2017-10-15T14:33:54.581Z,56.32
2017-10-15T14:35:03.601Z,56.22
2017-10-15T14:36:13.026Z,56.32
2017-10-15T14:37:22.059Z,56.32
2017-10-15T14:38:31.046Z,56.22
2017-10-15T14:39:40.384Z,55.93
2017-10-15T14:40:49.096Z,56.13
2017-10-15T14:41:58.123Z,55.93
2017-10-15T14:43:07.117Z,55.74
2017-10-15T14:44:16.179Z,55.93
2017-10-15T14:45:24.876Z,55.83
2017-10-15T14:46:33.911Z,56.03
2017-10-15T14:47:42.980Z,55.87
2017-10-15T14:48:51.666Z,55.77
2017-10-15T14:50:00.984Z,55.67
2017-10-15T14:51:09.658Z,55.83
2017-10-15T14:52:19.002Z,55.96
2017-10-15T14:53:28.001Z,55.87
2017-10-15T14:54:37.009Z,55.77
2017-10-15T14:55:46.392Z,55.77
2017-10-15T14:56:55.054Z,55.87
2017-10-15T14:58:03.750Z,55.87
2017-10-15T14:59:12.446Z,55.87
2017-10-15T15:00:21.756Z,55.87